TAF and METAR

METAR for Carlos Ibanez Del Campo International Airport

SCCI 221200Z 16006KT 9999 06/M03 Q1022 NOSIG
Report created 22. okt 14:00
wind 6 knots from SSE (160°) visibility > 10km Temperature 6° with dewpoint at -3° (Humidity 52.42%) Pressure 1022 hPa no significant weather change expected the next couple of hours

TAF for Carlos Ibanez Del Campo International Airport

TAF SCCI 221043Z 2212/2312 24005KT CAVOK TN02/2212Z TX10/2220Z BECMG 2216/2218 20005KT 9999 FEW040 TEMPO 2218/2303 15003KT TEMPO 2303/2312 9000 FEW008 SCT015 BECMG 2304/2306 24005KT
Report created 22. okt 12:43

between 22. okt 14:00 - 23. okt 14:00

wind 5 knots from WSW (240°) Clear sky Min temperature 02° expected today at around 14 o'clock
Carlos Ibanez Del Campo International Airport in Chile at 37m

Latest 5 airports